createdAt,value
2024-02-29T00:02:05.348Z,98539.34
2024-02-29T00:04:31.485Z,98542.81
2024-02-29T00:06:57.668Z,98540.19
2024-02-29T00:09:23.865Z,98529.63
2024-02-29T00:11:50.019Z,98529.78
2024-02-29T00:14:16.180Z,98529.78
2024-02-29T00:16:42.319Z,98532.44
2024-02-29T00:19:08.550Z,98527.97
2024-02-29T00:21:34.861Z,98522.69
2024-02-29T00:24:01.029Z,98518.41
2024-02-29T00:26:27.199Z,98527.16
2024-02-29T00:28:53.383Z,98528.94
2024-02-29T00:31:19.557Z,98527.16
2024-02-29T00:33:45.827Z,98527.97
2024-02-29T00:36:12.023Z,98529.78
2024-02-29T00:38:38.214Z,98531.59
2024-02-29T00:41:04.363Z,98521.88
2024-02-29T00:43:30.550Z,98521.88
2024-02-29T00:45:56.738Z,98509.66
2024-02-29T00:48:22.909Z,98506.22
2024-02-29T00:50:49.101Z,98508.03
2024-02-29T00:53:15.240Z,98497.47
2024-02-29T00:55:41.422Z,98499.28
2024-02-29T00:58:07.728Z,98498.47
2024-02-29T01:00:33.966Z,98491.53
2024-02-29T01:03:00.143Z,98484.47
2024-02-29T01:05:26.579Z,98483.63
2024-02-29T01:07:52.718Z,98479.19
2024-02-29T01:10:18.941Z,98488.88
2024-02-29T01:12:45.264Z,98477.53
2024-02-29T01:15:11.427Z,98477.53
2024-02-29T01:17:37.652Z,98473.25
2024-02-29T01:20:03.864Z,98467.97
2024-02-29T01:22:30.006Z,98464.50
2024-02-29T01:24:56.208Z,98460.22
2024-02-29T01:27:22.372Z,98452.31
2024-02-29T01:29:48.514Z,98454.97
2024-02-29T01:32:19.128Z,98451.31
2024-02-29T01:34:52.341Z,98452.31
2024-02-29T01:37:18.708Z,98447.03
2024-02-29T01:39:44.906Z,98448.03
2024-02-29T01:42:11.196Z,98444.41
2024-02-29T01:44:37.330Z,98437.47
2024-02-29T01:47:05.073Z,98437.47
2024-02-29T01:49:31.232Z,98434.03
2024-02-29T01:51:57.393Z,98427.94
2024-02-29T01:54:23.527Z,98423.47
2024-02-29T01:56:49.686Z,98432.34
2024-02-29T01:59:15.874Z,98421.00
2024-02-29T02:01:42.195Z,98419.16
2024-02-29T02:04:08.494Z,98414.75
2024-02-29T02:06:34.776Z,98405.16
2024-02-29T02:09:00.918Z,98412.09
2024-02-29T02:11:27.124Z,98405.97
2024-02-29T02:13:53.257Z,98404.34
2024-02-29T02:16:19.466Z,98397.25
2024-02-29T02:18:45.690Z,98397.25
2024-02-29T02:21:11.892Z,98388.69
2024-02-29T02:23:38.090Z,98393.97
2024-02-29T02:26:04.333Z,98386.06
2024-02-29T02:28:30.498Z,98384.22
2024-02-29T02:30:56.752Z,98379.81
2024-02-29T02:33:22.995Z,98384.41
2024-02-29T02:35:49.134Z,98380.78
2024-02-29T02:38:15.276Z,98384.41
2024-02-29T02:40:41.449Z,98375.50
2024-02-29T02:43:07.720Z,98364.16
2024-02-29T02:45:34.002Z,98373.84
2024-02-29T02:48:00.292Z,98363.31
2024-02-29T02:50:26.524Z,98364.16
2024-02-29T02:52:52.698Z,98363.31
2024-02-29T02:55:18.970Z,98364.16
2024-02-29T02:57:45.197Z,98352.75
2024-02-29T03:00:11.353Z,98350.13
2024-02-29T03:02:37.533Z,98342.19
2024-02-29T03:05:03.689Z,98335.31
2024-02-29T03:07:29.832Z,98328.19
2024-02-29T03:09:56.091Z,98327.56
2024-02-29T03:12:22.271Z,98325.72
2024-02-29T03:14:48.432Z,98332.03
2024-02-29T03:17:14.596Z,98321.47
2024-02-29T03:19:40.776Z,98321.47
2024-02-29T03:22:06.988Z,98311.72
2024-02-29T03:24:33.212Z,98309.09
2024-02-29T03:26:59.362Z,98300.38
2024-02-29T03:29:25.534Z,98308.28
2024-02-29T03:31:51.703Z,98296.88
2024-02-29T03:34:17.896Z,98301.34
2024-02-29T03:36:44.125Z,98293.44
2024-02-29T03:39:10.397Z,98293.44
2024-02-29T03:41:36.576Z,98281.25
2024-02-29T03:44:02.735Z,98283.91
2024-02-29T03:46:28.889Z,98279.59
2024-02-29T03:48:55.089Z,98271.69
2024-02-29T03:51:21.239Z,98269.06
2024-02-29T03:53:47.391Z,98266.41
2024-02-29T03:56:13.531Z,98265.59
2024-02-29T03:58:39.658Z,98267.22
2024-02-29T04:01:05.893Z,98251.56
2024-02-29T04:03:32.101Z,98250.75
2024-02-29T04:05:58.277Z,98254.22
2024-02-29T04:08:24.492Z,98244.50
2024-02-29T04:10:50.714Z,98246.31
2024-02-29T04:13:16.931Z,98245.50
2024-02-29T04:15:44.751Z,98235.97
2024-02-29T04:18:11.446Z,98232.47
2024-02-29T04:20:37.605Z,98233.31
2024-02-29T04:23:03.771Z,98235.97
2024-02-29T04:25:29.952Z,98221.94
2024-02-29T04:27:56.128Z,98236.13
2024-02-29T04:30:22.355Z,98233.50
2024-02-29T04:32:48.498Z,98232.47
2024-02-29T04:35:14.667Z,98225.56
2024-02-29T04:37:40.960Z,98228.22
2024-02-29T04:40:09.676Z,98227.19
2024-02-29T04:42:37.036Z,98220.31
2024-02-29T04:45:03.295Z,98226.53
2024-02-29T04:47:29.496Z,98223.06
2024-02-29T04:49:55.647Z,98227.34
2024-02-29T04:52:21.833Z,98226.53
2024-02-29T04:54:48.036Z,98220.44
2024-02-29T04:57:14.267Z,98215.97
2024-02-29T04:59:40.415Z,98211.72
2024-02-29T05:02:07.717Z,98212.53
2024-02-29T05:04:34.034Z,98220.44
2024-02-29T05:07:00.250Z,98210.06
2024-02-29T05:09:26.497Z,98210.06
2024-02-29T05:11:52.644Z,98211.72
2024-02-29T05:14:18.819Z,98213.50
2024-02-29T05:16:44.964Z,98209.91
2024-02-29T05:19:11.186Z,98194.25
2024-02-29T05:21:37.399Z,98196.06
2024-02-29T05:24:03.588Z,98196.88
2024-02-29T05:26:29.761Z,98192.59
2024-02-29T05:28:55.975Z,98186.50
2024-02-29T05:31:22.108Z,98192.59
2024-02-29T05:33:48.286Z,98182.03
2024-02-29T05:36:14.487Z,98183.88
2024-02-29T05:38:40.793Z,98175.16
2024-02-29T05:41:07.025Z,98175.16
2024-02-29T05:43:36.040Z,98167.22
2024-02-29T05:46:02.705Z,98158.50
2024-02-29T05:48:28.900Z,98164.59
2024-02-29T05:50:55.056Z,98158.50
2024-02-29T05:53:21.215Z,98162.94
2024-02-29T05:55:47.345Z,98158.69
2024-02-29T05:58:13.659Z,98159.50
2024-02-29T06:00:39.950Z,98157.66
2024-02-29T06:03:06.136Z,98156.84
2024-02-29T06:05:32.403Z,98156.03
2024-02-29T06:07:58.604Z,98163.97
2024-02-29T06:10:24.771Z,98158.69
2024-02-29T06:12:50.951Z,98156.03
2024-02-29T06:15:17.112Z,98148.13
2024-02-29T06:17:43.309Z,98147.31
2024-02-29T06:20:09.479Z,98152.41
2024-02-29T06:22:35.646Z,98150.78
2024-02-29T06:25:01.867Z,98141.22
2024-02-29T06:27:28.054Z,98146.31
2024-02-29T06:29:54.221Z,98128.03
2024-02-29T06:32:20.365Z,98134.94
2024-02-29T06:34:46.565Z,98145.50
2024-02-29T06:37:12.925Z,98142.06
2024-02-29T06:39:39.270Z,98146.47
2024-02-29T06:42:05.475Z,98144.84
2024-02-29T06:44:31.636Z,98139.59
2024-02-29T06:46:57.782Z,98133.31
2024-02-29T06:49:24.032Z,98128.03
2024-02-29T06:51:50.240Z,98121.94
2024-02-29T06:54:16.474Z,98124.56
2024-02-29T06:56:42.619Z,98119.47
2024-02-29T06:59:08.792Z,98114.19
2024-02-29T07:01:35.126Z,98120.28
2024-02-29T07:04:01.433Z,98122.94
2024-02-29T07:06:27.584Z,98115.22
2024-02-29T07:08:53.716Z,98114.19
2024-02-29T07:11:20.181Z,98117.66
2024-02-29T07:13:46.362Z,98118.66
2024-02-29T07:16:12.542Z,98096.75
2024-02-29T07:18:38.783Z,98100.38
2024-02-29T07:21:04.951Z,98105.66
2024-02-29T07:23:31.094Z,98101.19
2024-02-29T07:25:57.271Z,98107.47
2024-02-29T07:28:23.434Z,98104.66
2024-02-29T07:30:49.607Z,98104.84
2024-02-29T07:33:15.797Z,98107.31
2024-02-29T07:35:41.972Z,98105.66
2024-02-29T07:38:08.159Z,98104.84
2024-02-29T07:40:34.363Z,98099.56
2024-02-29T07:43:00.608Z,98105.66
2024-02-29T07:45:26.780Z,98101.19
2024-02-29T07:47:52.994Z,98106.47
2024-02-29T07:50:19.204Z,98103.81
2024-02-29T07:52:45.366Z,98101.19
2024-02-29T07:55:11.775Z,98100.38
2024-02-29T07:57:38.108Z,98095.91
2024-02-29T08:00:04.311Z,98104.84
2024-02-29T08:02:30.482Z,98098.72
2024-02-29T08:04:56.620Z,98079.28
2024-02-29T08:07:22.815Z,98095.09
2024-02-29T08:09:49.025Z,98091.66
2024-02-29T08:12:15.170Z,98093.47
2024-02-29T08:14:41.335Z,98095.09
2024-02-29T08:17:07.511Z,98084.56
2024-02-29T08:19:33.731Z,98085.53
2024-02-29T08:21:59.906Z,98080.28
2024-02-29T08:24:26.180Z,98079.47
2024-02-29T08:26:54.696Z,98078.66
2024-02-29T08:29:20.820Z,98068.91
2024-02-29T08:31:47.031Z,98071.56
2024-02-29T08:34:13.285Z,98060.19
2024-02-29T08:36:39.560Z,98059.38
2024-02-29T08:39:05.771Z,98051.47
2024-02-29T08:41:31.931Z,98055.91
2024-02-29T08:43:58.066Z,98060.19
2024-02-29T08:46:24.449Z,98054.94
2024-02-29T08:48:50.683Z,98056.53
2024-02-29T08:51:16.864Z,98047.00
2024-02-29T08:53:43.024Z,98058.53
2024-02-29T08:56:09.262Z,98048.00
2024-02-29T08:58:35.416Z,98047.00
2024-02-29T09:01:01.661Z,98048.84
2024-02-29T09:03:27.919Z,98049.66
2024-02-29T09:05:54.073Z,98043.56
2024-02-29T09:08:22.746Z,98048.84
2024-02-29T09:10:49.179Z,98053.28
2024-02-29T09:13:25.229Z,98048.00
2024-02-29T09:15:56.410Z,98044.38
2024-02-29T09:18:22.583Z,98039.09
2024-02-29T09:20:48.735Z,98045.38
2024-02-29T09:23:19.332Z,98039.91
2024-02-29T09:25:45.460Z,98038.28
2024-02-29T09:28:11.710Z,98043.56
2024-02-29T09:30:37.943Z,98037.47
2024-02-29T09:33:05.448Z,98033.84
2024-02-29T09:35:31.723Z,98034.81
2024-02-29T09:37:57.957Z,98030.38
2024-02-29T09:40:24.224Z,98031.19
2024-02-29T09:42:59.679Z,98022.47
2024-02-29T09:45:26.013Z,98028.56
2024-02-29T09:47:56.737Z,98022.47
2024-02-29T09:50:24.981Z,98025.13
2024-02-29T09:53:10.361Z,98025.13
2024-02-29T09:55:36.864Z,98024.09
2024-02-29T09:58:04.755Z,98026.75
2024-02-29T10:00:30.975Z,98026.75
2024-02-29T10:02:57.112Z,98028.38
2024-02-29T10:05:23.328Z,98024.09
2024-02-29T10:07:49.536Z,98022.28
2024-02-29T10:10:15.840Z,98012.56
2024-02-29T10:12:42.062Z,98021.28
2024-02-29T10:15:08.247Z,98010.75
2024-02-29T10:17:34.612Z,97998.53
2024-02-29T10:20:00.853Z,98002.84
2024-02-29T10:22:27.096Z,97995.75
2024-02-29T10:24:53.409Z,97997.56
2024-02-29T10:27:19.658Z,97994.94
2024-02-29T10:29:45.799Z,97996.56
2024-02-29T10:32:11.967Z,97988.66
2024-02-29T10:34:38.946Z,97988.66
2024-02-29T10:37:05.655Z,97978.13
2024-02-29T10:39:31.938Z,97979.75
2024-02-29T10:41:58.133Z,97978.94
2024-02-29T10:44:24.298Z,97978.94
2024-02-29T10:46:53.322Z,97985.00
2024-02-29T10:49:19.642Z,97971.84
2024-02-29T10:51:48.732Z,97968.22
2024-02-29T10:54:22.516Z,97966.56
2024-02-29T10:56:49.319Z,97962.09
2024-02-29T10:59:15.632Z,97961.28
2024-02-29T11:04:23.233Z,97953.19
2024-02-29T11:06:49.869Z,97954.00
2024-02-29T11:09:16.161Z,97953.19
2024-02-29T11:11:42.312Z,97941.84
2024-02-29T11:14:08.438Z,97940.81
2024-02-29T11:16:34.581Z,97938.19
2024-02-29T11:19:00.796Z,97923.22
2024-02-29T11:21:28.246Z,97933.56
2024-02-29T11:23:54.383Z,97924.84
2024-02-29T11:26:23.402Z,97924.03
2024-02-29T11:28:49.553Z,97922.19
2024-02-29T11:31:15.973Z,97913.47
2024-02-29T11:33:42.308Z,97907.19
2024-02-29T11:36:08.532Z,97903.75
2024-02-29T11:41:26.505Z,97886.09
2024-02-29T11:46:35.999Z,97885.09
2024-02-29T11:49:02.312Z,97878.00
2024-02-29T11:51:36.484Z,97879.66
2024-02-29T11:54:03.064Z,97876.19
2024-02-29T11:56:29.475Z,97872.56
2024-02-29T11:58:58.493Z,97867.28
2024-02-29T12:01:25.113Z,97868.09
2024-02-29T12:03:51.394Z,97866.28
2024-02-29T12:06:26.527Z,97862.81
2024-02-29T12:08:52.717Z,97858.38
2024-02-29T12:11:23.561Z,97863.66
2024-02-29T12:13:52.803Z,97860.00
2024-02-29T12:16:19.076Z,97861.69
2024-02-29T12:18:45.330Z,97852.09
2024-02-29T12:21:11.636Z,97850.25
2024-02-29T12:23:37.850Z,97849.44
2024-02-29T12:26:04.097Z,97845.88
2024-02-29T12:28:32.208Z,97838.91
2024-02-29T12:31:01.503Z,97833.47
2024-02-29T12:33:30.134Z,97836.94
2024-02-29T12:38:36.562Z,97827.41
2024-02-29T12:41:07.819Z,97836.94
2024-02-29T12:43:36.160Z,97828.03
2024-02-29T12:46:03.392Z,97817.47
2024-02-29T12:48:31.421Z,97812.22
2024-02-29T12:50:57.642Z,97807.94
2024-02-29T12:53:23.798Z,97803.28
2024-02-29T12:55:55.423Z,97798.00
2024-02-29T12:58:24.594Z,97795.38
2024-02-29T13:00:51.201Z,97794.56
2024-02-29T13:03:17.553Z,97786.47
2024-02-29T13:05:53.041Z,97783.84
2024-02-29T13:08:19.308Z,97784.63
2024-02-29T13:10:56.816Z,97773.28
2024-02-29T13:13:23.175Z,97764.38
2024-02-29T13:15:52.766Z,97763.38
2024-02-29T13:18:23.252Z,97769.44
2024-02-29T13:20:54.205Z,97762.56
2024-02-29T13:23:21.672Z,97755.44
2024-02-29T13:25:48.076Z,97745.72
2024-02-29T13:28:16.029Z,97745.72
2024-02-29T13:33:32.421Z,97741.28
2024-02-29T13:35:59.857Z,97735.16
2024-02-29T13:38:28.807Z,97735.16
2024-02-29T13:40:57.806Z,97720.19
2024-02-29T13:43:24.272Z,97724.44
2024-02-29T13:45:50.489Z,97727.06
2024-02-29T13:48:16.738Z,97717.38
2024-02-29T13:50:42.901Z,97720.00
2024-02-29T13:53:09.028Z,97711.06
2024-02-29T13:55:35.276Z,97709.22
2024-02-29T13:58:01.496Z,97698.69
2024-02-29T14:00:27.679Z,97699.53
2024-02-29T14:02:53.845Z,97688.13
2024-02-29T14:05:19.972Z,97683.69
2024-02-29T14:07:48.724Z,97686.34
2024-02-29T14:10:15.494Z,97672.97
2024-02-29T14:12:41.858Z,97673.97
2024-02-29T14:15:08.007Z,97659.78
2024-02-29T14:17:34.244Z,97669.50
2024-02-29T14:20:00.474Z,97661.59
2024-02-29T14:22:26.705Z,97652.69
2024-02-29T14:24:52.942Z,97653.66
2024-02-29T14:27:19.321Z,97649.22
2024-02-29T14:29:55.040Z,97651.66
2024-02-29T14:32:25.057Z,97645.56
2024-02-29T14:34:51.215Z,97641.09
2024-02-29T14:37:17.414Z,97640.31
2024-02-29T14:39:51.206Z,97634.22
2024-02-29T14:42:17.530Z,97626.94
2024-02-29T14:44:52.025Z,97631.41
2024-02-29T14:47:18.236Z,97627.72
2024-02-29T14:49:44.381Z,97625.09
2024-02-29T14:52:10.575Z,97617.19
2024-02-29T14:54:36.767Z,97618.84
2024-02-29T14:57:02.916Z,97610.09
2024-02-29T14:59:31.436Z,97610.09
2024-02-29T15:01:57.729Z,97610.09
2024-02-29T15:04:24.031Z,97604.81
2024-02-29T15:06:50.351Z,97605.66
2024-02-29T15:09:19.343Z,97598.53
2024-02-29T15:11:45.729Z,97604.63
2024-02-29T15:14:12.026Z,97596.72
2024-02-29T15:16:38.205Z,97599.34
2024-02-29T15:19:04.423Z,97592.28
2024-02-29T15:21:30.639Z,97586.16
2024-02-29T15:23:56.779Z,97583.53
2024-02-29T15:26:22.905Z,97583.53
2024-02-29T15:28:49.184Z,97582.53
2024-02-29T15:31:27.328Z,97582.53
2024-02-29T15:33:53.598Z,97576.44
2024-02-29T15:36:19.816Z,97581.50
2024-02-29T15:38:45.960Z,97573.59
2024-02-29T15:41:12.115Z,97577.25
2024-02-29T15:43:38.286Z,97567.50
2024-02-29T15:46:04.475Z,97565.69
2024-02-29T15:48:30.671Z,97567.31
2024-02-29T15:50:56.823Z,97559.41
2024-02-29T15:53:22.962Z,97557.75
2024-02-29T15:55:56.495Z,97555.97
2024-02-29T16:01:11.628Z,97556.78
2024-02-29T16:03:47.344Z,97554.13
2024-02-29T16:06:27.566Z,97546.22
2024-02-29T16:08:53.737Z,97553.94
2024-02-29T16:11:19.979Z,97546.03
2024-02-29T16:13:49.007Z,97532.03
2024-02-29T16:16:15.232Z,97541.75
2024-02-29T16:18:41.457Z,97534.69
2024-02-29T16:21:07.643Z,97537.31
2024-02-29T16:23:33.813Z,97532.03
2024-02-29T16:25:59.974Z,97533.66
2024-02-29T16:28:26.145Z,97531.00
2024-02-29T16:30:52.418Z,97531.00
2024-02-29T16:33:18.624Z,97531.81
2024-02-29T16:35:44.842Z,97520.47
2024-02-29T16:38:11.024Z,97514.19
2024-02-29T16:40:37.352Z,97515.19
2024-02-29T16:43:03.637Z,97516.00
2024-02-29T16:45:29.801Z,97516.00
2024-02-29T16:47:56.555Z,97518.63
2024-02-29T16:50:22.719Z,97514.19
2024-02-29T16:52:48.865Z,97519.47
2024-02-29T16:55:15.094Z,97521.09
2024-02-29T16:57:41.274Z,97514.19
2024-02-29T17:00:07.428Z,97505.44
2024-02-29T17:02:33.667Z,97503.66
2024-02-29T17:04:59.833Z,97498.38
2024-02-29T17:07:26.131Z,97497.53
2024-02-29T17:09:52.328Z,97496.34
2024-02-29T17:12:18.483Z,97492.06
2024-02-29T17:14:44.640Z,97502.63
2024-02-29T17:17:10.831Z,97501.63
2024-02-29T17:19:37.007Z,97499.97
2024-02-29T17:22:03.225Z,97495.53
2024-02-29T17:24:29.706Z,97498.19
2024-02-29T17:26:55.845Z,97489.44
2024-02-29T17:29:22.016Z,97487.63
2024-02-29T17:31:48.180Z,97478.88
2024-02-29T17:34:14.342Z,97481.53
2024-02-29T17:36:40.530Z,97489.44
2024-02-29T17:39:06.695Z,97484.16
2024-02-29T17:41:32.851Z,97482.34
2024-02-29T17:43:59.045Z,97486.59
2024-02-29T17:46:25.258Z,97482.13
2024-02-29T17:48:51.502Z,97485.78
2024-02-29T17:51:17.657Z,97472.59
2024-02-29T17:53:43.884Z,97473.41
2024-02-29T17:56:19.152Z,97465.50
2024-02-29T17:58:45.336Z,97467.34
2024-02-29T18:01:11.592Z,97471.59
2024-02-29T18:03:37.802Z,97464.69
2024-02-29T18:06:04.039Z,97458.63
2024-02-29T18:08:30.179Z,97460.22
2024-02-29T18:10:56.364Z,97459.41
2024-02-29T18:13:22.695Z,97456.78
2024-02-29T18:15:49.090Z,97455.75
2024-02-29T18:18:15.402Z,97448.06
2024-02-29T18:20:45.651Z,97449.88
2024-02-29T18:23:11.796Z,97445.44
2024-02-29T18:25:38.025Z,97434.03
2024-02-29T18:28:04.243Z,97447.22
2024-02-29T18:30:30.442Z,97440.97
2024-02-29T18:32:56.629Z,97438.31
2024-02-29T18:35:22.796Z,97439.13
2024-02-29T18:37:48.939Z,97436.69
2024-02-29T18:40:15.141Z,97434.03
2024-02-29T18:42:41.377Z,97434.03
2024-02-29T18:45:07.582Z,97434.88
2024-02-29T18:47:42.618Z,97430.41
2024-02-29T18:50:08.816Z,97426.97
2024-02-29T18:52:34.981Z,97419.06
2024-02-29T18:55:01.301Z,97420.84
2024-02-29T18:57:27.604Z,97423.50
2024-02-29T18:59:53.732Z,97427.16
2024-02-29T19:02:19.991Z,97430.41
2024-02-29T19:04:46.139Z,97428.75
2024-02-29T19:07:12.296Z,97425.31
2024-02-29T19:09:38.475Z,97425.31
2024-02-29T19:12:04.628Z,97420.84
2024-02-29T19:14:30.770Z,97420.06
2024-02-29T19:16:56.945Z,97418.41
2024-02-29T19:19:23.143Z,97416.59
2024-02-29T19:21:49.589Z,97424.53
2024-02-29T19:24:15.856Z,97413.97
2024-02-29T19:26:42.029Z,97408.69
2024-02-29T19:29:08.167Z,97402.59
2024-02-29T19:31:34.370Z,97400.78
2024-02-29T19:34:01.020Z,97411.53
2024-02-29T19:36:27.301Z,97405.22
2024-02-29T19:38:53.464Z,97397.53
2024-02-29T19:41:20.628Z,97400.97
2024-02-29T19:43:46.770Z,97393.88
2024-02-29T19:46:12.997Z,97405.44
2024-02-29T19:48:39.213Z,97401.78
2024-02-29T19:51:05.361Z,97397.53
2024-02-29T19:53:31.500Z,97392.25
2024-02-29T19:55:57.652Z,97395.69
2024-02-29T19:58:23.889Z,97394.91
2024-02-29T20:00:50.155Z,97400.97
2024-02-29T20:03:16.343Z,97392.25
2024-02-29T20:05:42.488Z,97388.78
2024-02-29T20:08:08.689Z,97390.44
2024-02-29T20:10:34.953Z,97389.63
2024-02-29T20:13:01.163Z,97388.59
2024-02-29T20:15:27.336Z,97384.34
2024-02-29T20:17:53.568Z,97389.63
2024-02-29T20:20:19.757Z,97375.59
2024-02-29T20:22:45.896Z,97380.06
2024-02-29T20:25:12.096Z,97373.78
2024-02-29T20:27:38.276Z,97364.84
2024-02-29T20:30:04.433Z,97365.88
2024-02-29T20:32:30.627Z,97360.59
2024-02-29T20:34:56.801Z,97371.97
2024-02-29T20:37:22.989Z,97355.34
2024-02-29T20:39:49.219Z,97352.69
2024-02-29T20:42:15.369Z,97350.06
2024-02-29T20:44:41.508Z,97357.13
2024-02-29T20:47:07.703Z,97347.41
2024-02-29T20:49:33.930Z,97352.69
2024-02-29T20:52:00.184Z,97346.59
2024-02-29T20:54:26.370Z,97343.13
2024-02-29T20:56:52.500Z,97339.69
2024-02-29T20:59:18.638Z,97338.88
2024-02-29T21:01:44.835Z,97342.34
2024-02-29T21:04:11.040Z,97329.16
2024-02-29T21:06:37.211Z,97335.22
2024-02-29T21:09:03.407Z,97325.69
2024-02-29T21:11:29.617Z,97323.03
2024-02-29T21:13:55.785Z,97334.44
2024-02-29T21:16:21.984Z,97319.59
2024-02-29T21:18:48.170Z,97319.41
2024-02-29T21:21:16.361Z,97309.84
2024-02-29T21:23:43.748Z,97308.06
2024-02-29T21:26:09.894Z,97309.84
2024-02-29T21:28:36.076Z,97302.97
2024-02-29T21:31:02.289Z,97312.50
2024-02-29T21:33:28.485Z,97316.97
2024-02-29T21:35:55.952Z,97309.06
2024-02-29T21:38:23.795Z,97313.53
2024-02-29T21:40:49.942Z,97301.34
2024-02-29T21:43:16.093Z,97303.97
2024-02-29T21:45:42.369Z,97300.34
2024-02-29T21:48:08.716Z,97301.13
2024-02-29T21:50:34.980Z,97294.25
2024-02-29T21:53:01.129Z,97288.97
2024-02-29T21:55:27.292Z,97282.88
2024-02-29T21:57:53.447Z,97282.88
2024-02-29T22:00:19.623Z,97280.22
2024-02-29T22:02:45.790Z,97279.44
2024-02-29T22:05:11.938Z,97263.59
2024-02-29T22:07:38.186Z,97268.88
2024-02-29T22:10:04.369Z,97254.91
2024-02-29T22:12:30.603Z,97259.34
2024-02-29T22:14:56.750Z,97258.53
2024-02-29T22:17:22.897Z,97252.25
2024-02-29T22:19:49.053Z,97244.34
2024-02-29T22:22:15.285Z,97250.63
2024-02-29T22:24:41.481Z,97253.06
2024-02-29T22:27:07.617Z,97243.50
2024-02-29T22:29:33.787Z,97245.34
2024-02-29T22:31:59.931Z,97243.50
2024-02-29T22:34:26.202Z,97242.72
2024-02-29T22:36:52.754Z,97243.50
2024-02-29T22:39:21.269Z,97247.97
2024-02-29T22:41:56.370Z,97237.44
2024-02-29T22:44:23.677Z,97245.34
2024-02-29T22:46:49.840Z,97247.97
2024-02-29T22:49:16.043Z,97233.19
2024-02-29T22:51:44.728Z,97235.00
2024-02-29T22:54:10.862Z,97241.09
2024-02-29T22:56:37.019Z,97235.81
2024-02-29T22:59:03.178Z,97239.47
2024-02-29T23:01:29.491Z,97229.72
2024-02-29T23:03:55.717Z,97228.91
2024-02-29T23:06:21.910Z,97222.84
2024-02-29T23:08:48.040Z,97228.91
2024-02-29T23:11:14.270Z,97226.28
2024-02-29T23:13:40.453Z,97228.91
2024-02-29T23:16:06.609Z,97228.31
2024-02-29T23:18:32.750Z,97228.09
2024-02-29T23:20:58.896Z,97218.38
2024-02-29T23:23:25.040Z,97218.38
2024-02-29T23:25:51.181Z,97209.66
2024-02-29T23:28:17.557Z,97213.09
2024-02-29T23:30:43.704Z,97215.72
2024-02-29T23:33:10.131Z,97213.09
2024-02-29T23:35:36.326Z,97207.00
2024-02-29T23:38:02.675Z,97207.81
2024-02-29T23:40:28.902Z,97211.25
2024-02-29T23:42:55.350Z,97201.75
2024-02-29T23:45:21.511Z,97206.22
2024-02-29T23:47:47.724Z,97199.09
2024-02-29T23:50:14.093Z,97200.94
2024-02-29T23:52:40.389Z,97191.19
2024-02-29T23:55:06.568Z,97197.28
2024-02-29T23:57:32.745Z,97185.13
2024-02-29T23:59:58.992Z,97184.28
